Time;durP1;ratioP1;P1;durP2;ratioP2;P2;SDS_P1;SDS_P2;PMS_P1;PMS_P2;Temp;Humidity;BMP_temperature;BMP_pressure;BME280_temperature;BME280_humidity;BME280_pressure;Samples;Min_cycle;Max_cycle;Signal;HPM_P1;HPM_P2
2022/10/08 00:00:57;;;;;;;18.40;5.18;;;;;;;21.92;54.53;99040.13;5094915;28;20031;-45
2022/10/08 00:03:27;;;;;;;8.93;4.47;;;;;;;21.92;55.13;99043.59;5094609;28;20269;-45
2022/10/08 00:05:58;;;;;;;10.30;4.50;;;;;;;21.90;54.75;99029.69;5094538;28;20071;-45
2022/10/08 00:08:26;;;;;;;9.23;3.83;;;;;;;21.80;55.42;99034.22;5095886;28;20020;-45
2022/10/08 00:10:54;;;;;;;11.35;4.38;;;;;;;21.83;54.54;99031.84;5095765;28;20525;-46
2022/10/08 00:13:39;;;;;;;11.00;4.35;;;;;;;21.49;54.65;99034.97;5095752;28;20501;-45
2022/10/08 00:16:11;;;;;;;11.35;4.40;;;;;;;21.29;55.70;99030.34;5095708;28;20028;-45
2022/10/08 00:18:39;;;;;;;11.27;4.60;;;;;;;21.08;56.07;99034.00;5094239;28;20048;-46
2022/10/08 00:21:33;;;;;;;12.63;5.07;;;;;;;21.10;56.61;99034.53;5095597;28;20458;-46
2022/10/08 00:24:00;;;;;;;7.65;4.47;;;;;;;21.02;56.52;99027.81;5089776;28;20525;-46
2022/10/08 00:26:29;;;;;;;13.05;4.55;;;;;;;21.01;57.15;99031.56;5095834;28;20038;-46
2022/10/08 00:28:57;;;;;;;8.68;4.75;;;;;;;20.99;56.59;99035.53;5095514;28;20043;-46
2022/10/08 00:31:31;;;;;;;14.85;4.85;;;;;;;20.79;57.42;99031.72;5095461;28;20048;-46
2022/10/08 00:33:59;;;;;;;12.82;4.10;;;;;;;20.91;57.83;99031.53;5095417;28;20032;-46
2022/10/08 00:36:28;;;;;;;27.58;13.60;;;;;;;21.25;57.30;99029.28;5093953;28;20024;-46
2022/10/08 00:38:59;;;;;;;8.55;4.40;;;;;;;21.24;56.39;99029.53;5095226;28;20107;-46
2022/10/08 00:41:27;;;;;;;19.95;5.57;;;;;;;21.04;56.97;99027.56;5095447;28;20055;-46
2022/10/08 00:43:56;;;;;;;14.85;4.50;;;;;;;21.01;57.24;99023.56;5095320;28;20024;-46
2022/10/08 00:46:36;;;;;;;12.43;4.75;;;;;;;20.86;57.28;99029.63;5095351;28;20056;-46
2022/10/08 00:49:09;;;;;;;14.95;5.32;;;;;;;21.11;57.76;99023.59;5093785;28;20502;-45
2022/10/08 00:51:34;;;;;;;13.52;5.45;;;;;;;21.41;56.77;99034.63;5094896;28;20024;-45
2022/10/08 00:54:01;;;;;;;11.02;4.88;;;;;;;21.25;56.46;99020.44;5093636;28;20077;-46
2022/10/08 00:56:30;;;;;;;8.02;4.25;;;;;;;20.95;57.06;99029.94;5095132;28;20020;-46
2022/10/08 00:58:58;;;;;;;17.23;7.05;;;;;;;20.74;57.97;99029.03;5094810;28;20043;-46
2022/10/08 01:01:24;;;;;;;14.45;5.53;;;;;;;20.82;58.43;99030.41;5093507;28;20501;-46
2022/10/08 01:03:50;;;;;;;8.30;4.78;;;;;;;20.89;57.55;99031.78;5094673;28;20032;-46
2022/10/08 01:06:24;;;;;;;8.20;4.18;;;;;;;20.68;57.80;99025.53;5094585;28;20420;-46
2022/10/08 01:08:57;;;;;;;13.82;5.65;;;;;;;20.44;58.58;99024.28;5093469;28;20058;-45
2022/10/08 01:11:46;;;;;;;9.60;5.05;;;;;;;20.24;58.98;99025.75;5093347;28;20057;-46
2022/10/08 01:14:43;;;;;;;19.48;7.65;;;;;;;20.42;60.18;99026.41;5093299;28;20032;-46
2022/10/08 01:17:25;;;;;;;9.40;4.47;;;;;;;20.80;58.19;99027.19;5094366;28;20151;-46
2022/10/08 01:20:28;;;;;;;11.90;5.07;;;;;;;20.62;58.54;99028.41;5094505;28;20016;-46
2022/10/08 01:23:21;;;;;;;7.63;4.00;;;;;;;20.57;58.80;99025.72;5094364;28;20501;-46
2022/10/08 01:26:47;;;;;;;12.35;5.50;;;;;;;20.49;58.81;99022.44;5094364;28;20549;-46
2022/10/08 01:29:39;;;;;;;26.67;10.38;;;;;;;20.15;59.53;99009.41;5015554;28;20044;-45
2022/10/08 01:32:22;;;;;;;10.05;5.03;;;;;;;20.06;59.69;99018.97;5031836;28;20033;-46
2022/10/08 01:35:02;;;;;;;18.15;5.75;;;;;;;19.94;59.88;99015.63;5015224;28;20104;-46
2022/10/08 01:37:37;;;;;;;10.77;4.82;;;;;;;19.71;60.19;99014.91;5015071;28;20045;-46
2022/10/08 01:40:09;;;;;;;8.02;4.65;;;;;;;19.42;60.99;99013.50;5031711;28;20080;-46
2022/10/08 01:42:38;;;;;;;13.35;5.43;;;;;;;19.30;61.84;99011.81;5031645;28;20076;-45
2022/10/08 01:45:10;;;;;;;18.25;5.38;;;;;;;19.40;62.74;99012.94;5031459;28;20039;-45
2022/10/08 01:47:39;;;;;;;12.23;5.20;;;;;;;19.67;62.06;99010.31;5031643;28;20450;-45
2022/10/08 01:50:18;;;;;;;19.13;14.77;;;;;;;19.90;62.11;99004.69;5031363;28;20021;-45
2022/10/08 01:52:52;;;;;;;10.63;5.07;;;;;;;19.98;61.51;98997.28;5014937;28;20099;-45
2022/10/08 01:55:43;;;;;;;12.52;6.45;;;;;;;20.08;61.79;99002.69;5031401;28;20457;-45
2022/10/08 01:58:33;;;;;;;6.00;4.50;;;;;;;20.42;60.74;98999.75;5026769;28;20037;-45
2022/10/08 02:01:09;;;;;;;19.17;6.43;;;;;;;20.35;60.98;99003.44;5014692;28;20029;-45
2022/10/08 02:03:34;;;;;;;12.93;5.97;;;;;;;20.12;61.32;99006.44;5043315;28;20044;-45
2022/10/08 02:06:04;;;;;;;18.08;4.85;;;;;;;20.00;62.00;99006.66;5093487;28;20103;-45
2022/10/08 02:08:30;;;;;;;11.50;5.93;;;;;;;20.08;62.06;99008.03;5093563;28;20047;-46
2022/10/08 02:10:56;;;;;;;13.25;5.25;;;;;;;20.09;61.84;99002.44;5093480;28;20525;-45
2022/10/08 02:13:22;;;;;;;17.23;6.22;;;;;;;19.93;62.44;99006.84;5092105;28;20035;-46
2022/10/08 02:15:58;;;;;;;9.95;4.72;;;;;;;19.73;62.81;98999.47;5093357;28;20490;-45
2022/10/08 02:19:00;;;;;;;11.32;5.65;;;;;;;19.57;63.72;99013.66;5091332;28;20081;-45
2022/10/08 02:21:27;;;;;;;13.40;5.22;;;;;;;19.46;63.90;99004.00;5077631;28;20502;-45
2022/10/08 02:24:16;;;;;;;11.88;5.57;;;;;;;19.65;63.77;98999.09;5093107;28;20024;-46
2022/10/08 02:26:52;;;;;;;7.18;4.85;;;;;;;19.71;63.58;99006.13;5093216;28;20027;-45
2022/10/08 02:29:32;;;;;;;8.18;7.35;;;;;;;19.78;63.20;99009.38;5093129;28;20045;-45
2022/10/08 02:32:07;;;;;;;11.65;5.60;;;;;;;19.86;63.01;98994.78;5093121;28;20031;-46
2022/10/08 02:34:45;;;;;;;10.00;5.85;;;;;;;19.82;62.75;98997.19;5091690;28;20020;-45
2022/10/08 02:37:28;;;;;;;9.65;5.18;;;;;;;19.66;62.76;99006.03;5092964;28;20036;-45
2022/10/08 02:40:03;;;;;;;6.45;5.50;;;;;;;19.62;63.07;99004.91;5092895;28;20032;-45
2022/10/08 02:42:32;;;;;;;12.07;9.05;;;;;;;19.69;62.79;99006.34;5091529;28;20031;-45
2022/10/08 02:45:13;;;;;;;14.05;10.18;;;;;;;19.77;63.35;98993.66;5092728;28;20020;-45
2022/10/08 02:47:40;;;;;;;10.55;5.72;;;;;;;20.01;62.60;99005.59;5091495;28;20051;-46
2022/10/08 02:50:12;;;;;;;9.98;5.68;;;;;;;19.97;62.24;99001.81;5091337;28;20024;-45
2022/10/08 02:52:42;;;;;;;12.82;8.90;;;;;;;19.87;62.23;98999.88;5091461;28;20451;-45
2022/10/08 02:55:40;;;;;;;9.38;4.65;;;;;;;19.69;62.82;99005.53;5092904;28;20028;-45
2022/10/08 02:58:09;;;;;;;8.80;5.65;;;;;;;19.52;63.02;98998.47;5092598;28;20020;-46
2022/10/08 03:01:02;;;;;;;9.05;5.85;;;;;;;19.41;63.81;98999.41;5092517;28;20020;-45
2022/10/08 03:03:33;;;;;;;10.27;4.00;;;;;;;19.44;63.86;99000.78;5092446;28;20058;-45
2022/10/08 03:06:05;;;;;;;10.20;4.72;;;;;;;19.61;63.60;99000.66;5092459;28;20545;-45
2022/10/08 03:08:33;;;;;;;10.25;5.78;;;;;;;19.67;63.02;99003.13;5091146;28;20024;-45
2022/10/08 03:10:59;;;;;;;6.25;4.13;;;;;;;19.54;62.97;99006.19;5092304;28;20035;-46
2022/10/08 03:13:27;;;;;;;11.80;8.15;;;;;;;19.35;63.68;99001.19;5092649;28;20116;-45
2022/10/08 03:15:53;;;;;;;12.80;7.05;;;;;;;19.41;64.30;99003.91;5092266;28;20106;-45
2022/10/08 03:18:23;;;;;;;16.00;14.35;;;;;;;19.68;64.63;99007.41;5090721;28;20122;-46
2022/10/08 03:20:52;;;;;;;26.00;21.58;;;;;;;20.01;64.21;99007.44;5092253;28;20031;-46
2022/10/08 03:23:18;;;;;;;68.75;62.70;;;;;;;20.44;63.35;99009.06;5090736;28;20436;-45
2022/10/08 03:25:44;;;;;;;55.53;50.47;;;;;;;20.67;62.15;99012.47;5092038;28;20023;-45
2022/10/08 03:28:09;;;;;;;16.33;11.05;;;;;;;20.77;61.85;99017.84;5090834;28;20066;-46
2022/10/08 03:30:35;;;;;;;15.77;7.63;;;;;;;20.70;61.42;99022.59;5091178;28;20020;-46
2022/10/08 03:33:01;;;;;;;13.63;5.22;;;;;;;20.74;61.20;99023.69;5090787;28;20052;-45
2022/10/08 03:35:27;;;;;;;18.42;14.48;;;;;;;20.85;60.98;99025.34;5092036;28;20095;-46
2022/10/08 03:37:52;;;;;;;14.45;7.53;;;;;;;20.99;60.58;99020.34;5090676;28;20111;-46
2022/10/08 03:40:20;;;;;;;15.18;10.52;;;;;;;21.00;60.19;99024.63;5091975;28;20511;-46
2022/10/08 03:42:46;;;;;;;19.10;17.50;;;;;;;20.95;60.06;99024.63;5091940;28;20028;-45
2022/10/08 03:45:12;;;;;;;11.63;9.60;;;;;;;20.74;60.24;99027.19;5091715;28;20515;-45
2022/10/08 03:47:37;;;;;;;11.15;6.30;;;;;;;20.47;61.50;99040.56;5090602;28;20028;-46
2022/10/08 03:50:04;;;;;;;18.77;5.28;;;;;;;20.09;62.88;99037.09;5091856;28;20081;-45
2022/10/08 03:52:30;;;;;;;27.50;11.48;;;;;;;19.81;64.85;99040.03;5090478;28;20031;-45
2022/10/08 03:54:55;;;;;;;8.65;5.45;;;;;;;19.67;66.40;99040.41;5090495;28;20060;-45
2022/10/08 03:57:21;;;;;;;16.02;8.40;;;;;;;19.54;67.89;99046.13;5092102;28;20073;-45
2022/10/08 03:59:47;;;;;;;11.35;4.88;;;;;;;19.49;68.69;99046.88;5090452;28;20050;-45
2022/10/08 04:02:12;;;;;;;12.05;5.90;;;;;;;19.38;69.75;99049.66;5090739;28;20020;-45
2022/10/08 04:04:38;;;;;;;9.05;5.25;;;;;;;19.27;70.05;99044.22;5091879;28;20061;-45
2022/10/08 04:07:04;;;;;;;18.02;6.63;;;;;;;19.20;71.15;99038.28;5090372;28;20515;-45
2022/10/08 04:09:29;;;;;;;15.43;5.85;;;;;;;19.32;72.10;99048.81;5091699;28;20020;-45
2022/10/08 04:11:55;;;;;;;15.75;5.35;;;;;;;19.38;72.02;99047.81;5090301;28;20020;-45
2022/10/08 04:14:20;;;;;;;20.80;7.15;;;;;;;19.37;72.77;99048.84;5091676;28;20489;-45
2022/10/08 04:16:47;;;;;;;24.27;6.20;;;;;;;19.31;73.49;99053.31;5090327;28;20052;-46
2022/10/08 04:19:13;;;;;;;12.23;5.07;;;;;;;19.22;73.81;99048.69;5091676;28;20072;-45
2022/10/08 04:21:39;;;;;;;11.23;5.80;;;;;;;19.16;74.53;99055.81;5091589;28;20027;-45
2022/10/08 04:24:05;;;;;;;8.80;5.45;;;;;;;19.07;74.64;99062.59;5090154;28;20030;-45
2022/10/08 04:26:30;;;;;;;16.95;11.57;;;;;;;18.87;75.27;99052.50;5090162;28;20028;-45
2022/10/08 04:28:56;;;;;;;15.95;8.43;;;;;;;18.69;76.61;99054.38;5090459;28;20061;-45
2022/10/08 04:31:22;;;;;;;13.52;10.20;;;;;;;18.52;77.75;99053.56;5091529;28;20012;-45
2022/10/08 04:33:49;;;;;;;18.63;8.40;;;;;;;18.36;78.27;99057.84;5090371;28;20086;-44
2022/10/08 04:36:21;;;;;;;11.98;9.60;;;;;;;18.16;79.26;99053.00;5091401;28;20062;-44
2022/10/08 04:38:47;;;;;;;11.05;8.60;;;;;;;18.04;80.45;99058.38;5091453;28;20028;-44
2022/10/08 04:41:18;;;;;;;8.82;7.45;;;;;;;17.91;81.69;99059.50;5090630;28;20146;-44
2022/10/08 04:43:45;;;;;;;13.75;7.20;;;;;;;17.73;81.64;99054.38;5093809;28;20035;-44
2022/10/08 04:46:15;;;;;;;8.65;6.25;;;;;;;17.41;81.16;99048.72;5095346;28;20028;-44
2022/10/08 04:48:46;;;;;;;12.80;8.38;;;;;;;17.12;82.12;99052.16;5093939;28;20370;-44
2022/10/08 04:51:12;;;;;;;16.77;7.60;;;;;;;16.94;83.13;99049.63;5095092;28;20127;-44
2022/10/08 04:53:38;;;;;;;7.28;6.05;;;;;;;16.81;83.93;99047.19;5093683;28;20060;-44
2022/10/08 04:56:10;;;;;;;9.48;6.00;;;;;;;16.65;84.34;99038.91;5094909;28;20058;-46
2022/10/08 04:58:36;;;;;;;10.95;6.45;;;;;;;16.55;85.00;99041.31;5093711;28;20042;-46
2022/10/08 05:01:04;;;;;;;10.63;8.35;;;;;;;16.46;85.88;99043.53;5076722;28;20024;-46
2022/10/08 05:03:30;;;;;;;7.40;6.65;;;;;;;16.50;86.98;99042.03;5094698;28;20082;-45
2022/10/08 05:05:55;;;;;;;8.95;7.47;;;;;;;16.62;88.08;99047.34;5093390;28;20020;-46
2022/10/08 05:08:21;;;;;;;18.33;9.77;;;;;;;16.58;87.85;99044.31;5093409;28;20042;-46
2022/10/08 05:10:48;;;;;;;14.40;8.68;;;;;;;16.52;88.20;99037.31;5094845;28;20329;-46
2022/10/08 05:13:14;;;;;;;16.10;9.30;;;;;;;16.48;88.28;99038.81;5094642;28;20051;-46
2022/10/08 05:15:39;;;;;;;8.73;7.38;;;;;;;16.93;90.61;99042.72;5094596;28;20482;-46
2022/10/08 05:18:05;;;;;;;13.50;7.03;;;;;;;17.25;90.88;99043.13;5092758;28;20533;-46
2022/10/08 05:20:30;;;;;;;11.80;6.50;;;;;;;17.83;91.47;99043.97;5093200;28;20031;-46
2022/10/08 05:22:56;;;;;;;13.23;6.20;;;;;;;18.15;90.31;99049.56;5093153;28;20025;-46
2022/10/08 05:25:22;;;;;;;19.55;12.80;;;;;;;18.31;88.78;99042.63;5094340;28;20020;-46
2022/10/08 05:27:47;;;;;;;14.70;7.60;;;;;;;18.28;88.18;99047.63;5094362;28;20529;-46
2022/10/08 05:30:13;;;;;;;18.30;9.30;;;;;;;18.25;87.98;99048.91;5094360;28;20056;-46
2022/10/08 05:32:38;;;;;;;13.63;8.60;;;;;;;18.23;88.33;99052.84;5092959;28;20020;-47
2022/10/08 05:35:04;;;;;;;17.80;7.13;;;;;;;18.32;88.84;99056.72;5092906;28;20036;-46
2022/10/08 05:37:30;;;;;;;19.60;8.07;;;;;;;18.36;88.74;99060.50;5094201;28;20024;-46
2022/10/08 05:39:56;;;;;;;13.55;7.32;;;;;;;18.29;89.07;99067.81;5094075;28;20052;-46
2022/10/08 05:42:22;;;;;;;17.35;9.00;;;;;;;18.22;88.93;99072.50;5092893;28;20020;-47
2022/10/08 05:44:47;;;;;;;13.30;8.77;;;;;;;17.99;88.87;99071.59;5092637;28;20039;-47
2022/10/08 05:47:13;;;;;;;19.67;10.48;;;;;;;17.71;88.84;99067.88;5094197;28;20101;-46
2022/10/08 05:49:38;;;;;;;17.02;8.95;;;;;;;17.71;90.77;99064.44;5093995;28;20460;-46
2022/10/08 05:52:04;;;;;;;18.13;9.20;;;;;;;17.66;89.89;99065.13;5093880;28;20027;-47
2022/10/08 05:54:32;;;;;;;12.13;9.63;;;;;;;17.48;89.35;99067.97;5092915;28;20049;-47
2022/10/08 05:56:58;;;;;;;27.00;10.57;;;;;;;17.35;89.83;99069.84;5093760;28;20020;-47
2022/10/08 05:59:24;;;;;;;10.02;8.00;;;;;;;17.50;90.64;99073.84;5093723;28;20047;-47
2022/10/08 06:01:51;;;;;;;12.32;8.23;;;;;;;17.40;89.94;99069.13;5093588;28;20082;-47
2022/10/08 06:04:17;;;;;;;21.65;10.02;;;;;;;17.42;90.43;99071.56;5093866;28;20024;-46
2022/10/08 06:06:43;;;;;;;14.02;9.15;;;;;;;17.64;90.96;99069.84;5092247;28;20024;-46
2022/10/08 06:09:15;;;;;;;10.88;9.88;;;;;;;17.71;90.49;99075.84;5093791;28;20046;-47
2022/10/08 06:11:41;;;;;;;20.10;9.93;;;;;;;17.71;90.25;99072.38;5093536;28;20527;-47
2022/10/08 06:14:10;;;;;;;15.27;8.98;;;;;;;17.76;90.45;99075.13;5093366;28;20085;-47
2022/10/08 06:16:36;;;;;;;14.63;9.55;;;;;;;17.75;90.06;99079.63;5091804;28;20118;-47
2022/10/08 06:19:02;;;;;;;13.60;9.23;;;;;;;17.83;90.62;99080.28;5093436;28;20107;-46
2022/10/08 06:21:28;;;;;;;17.42;10.98;;;;;;;17.88;90.34;99088.38;5091999;28;20050;-47
2022/10/08 06:23:57;;;;;;;14.40;9.52;;;;;;;17.85;89.77;99083.53;5091801;28;20035;-47
2022/10/08 06:26:25;;;;;;;20.42;9.05;;;;;;;17.77;89.69;99088.16;5091887;28;20118;-47
2022/10/08 06:28:51;;;;;;;20.60;9.02;;;;;;;17.82;89.94;99094.59;5091856;28;20016;-47
2022/10/08 06:31:18;;;;;;;27.10;23.67;;;;;;;17.83;89.04;99094.41;5093150;28;20397;-47
2022/10/08 06:33:44;;;;;;;11.63;9.40;;;;;;;17.83;88.83;99098.88;5091711;28;20035;-47
2022/10/08 06:36:18;;;;;;;11.52;8.85;;;;;;;17.88;88.38;99101.66;5093008;28;20367;-47
2022/10/08 06:38:51;;;;;;;22.73;8.40;;;;;;;17.81;87.73;99109.75;5093006;28;20048;-47
2022/10/08 06:41:17;;;;;;;13.18;8.80;;;;;;;17.71;87.30;99112.22;5091532;28;20059;-47
2022/10/08 06:43:43;;;;;;;17.00;12.65;;;;;;;17.62;87.27;99108.31;5092880;28;20030;-47
2022/10/08 06:46:10;;;;;;;15.95;9.63;;;;;;;17.60;87.81;99108.53;5092775;28;20089;-47
2022/10/08 06:48:35;;;;;;;23.50;12.88;;;;;;;17.62;88.17;99113.59;5091796;28;20028;-47
2022/10/08 06:51:11;;;;;;;12.52;10.65;;;;;;;17.67;88.99;99108.41;5092726;28;20394;-47
2022/10/08 06:53:37;;;;;;;17.48;8.30;;;;;;;17.83;89.32;99114.78;5092646;28;20089;-47
2022/10/08 06:56:07;;;;;;;13.95;11.90;;;;;;;17.81;88.35;99116.88;5091344;28;20115;-47
2022/10/08 06:58:36;;;;;;;14.10;9.30;;;;;;;17.73;88.47;99110.91;5092852;28;20032;-47
2022/10/08 07:01:12;;;;;;;20.63;11.90;;;;;;;17.91;89.93;99119.78;5092529;28;20103;-47
2022/10/08 07:03:38;;;;;;;22.60;8.55;;;;;;;18.33;91.23;99130.06;5091140;28;20024;-47
2022/10/08 07:06:06;;;;;;;15.35;9.88;;;;;;;18.61;90.56;99123.06;5091246;28;20031;-47
2022/10/08 07:08:32;;;;;;;28.77;26.23;;;;;;;18.68;89.79;99115.75;5092465;28;20020;-47
2022/10/08 07:11:10;;;;;;;26.40;20.33;;;;;;;18.73;89.87;99124.63;5091042;28;20164;-47
2022/10/08 07:13:37;;;;;;;15.63;14.02;;;;;;;18.59;89.31;99118.00;5092644;28;20024;-46
2022/10/08 07:16:08;;;;;;;17.08;14.13;;;;;;;18.42;89.41;99127.84;5092244;28;20099;-46
2022/10/08 07:18:35;;;;;;;18.83;13.13;;;;;;;18.23;89.63;99128.06;5092198;28;20056;-46
2022/10/08 07:21:01;;;;;;;22.83;12.38;;;;;;;17.99;89.22;99129.19;5092231;28;20020;-46
2022/10/08 07:23:27;;;;;;;30.48;21.25;;;;;;;17.89;90.73;99125.31;5074012;28;20024;-46
2022/10/08 07:26:05;;;;;;;29.23;19.02;;;;;;;17.90;91.70;99128.78;5091145;28;20020;-46
2022/10/08 07:28:35;;;;;;;31.90;14.25;;;;;;;17.86;92.13;99130.28;5090948;28;20055;-46
2022/10/08 07:31:07;;;;;;;22.33;14.13;;;;;;;17.80;92.29;99132.00;5092117;28;20050;-45
2022/10/08 07:33:33;;;;;;;29.70;15.82;;;;;;;18.04;93.91;99146.03;5090793;28;20051;-46
2022/10/08 07:36:10;;;;;;;19.17;12.05;;;;;;;18.25;94.33;99141.09;5092063;28;20092;-46
2022/10/08 07:38:37;;;;;;;18.02;10.93;;;;;;;18.55;95.26;99148.75;5092026;28;20028;-46
2022/10/08 07:41:02;;;;;;;21.48;9.90;;;;;;;18.74;94.71;99152.00;5091994;28;20028;-46
2022/10/08 07:43:28;;;;;;;23.15;9.85;;;;;;;18.64;93.70;99149.19;5092142;28;20034;-46
2022/10/08 07:45:54;;;;;;;21.80;11.20;;;;;;;18.55;94.08;99154.06;5090576;28;20451;-46
2022/10/08 07:48:20;;;;;;;16.33;9.88;;;;;;;18.41;93.31;99153.63;5090587;28;20516;-46
2022/10/08 07:50:46;;;;;;;20.35;12.18;;;;;;;18.33;93.77;99161.94;5091855;28;20103;-46
2022/10/08 07:53:11;;;;;;;18.30;10.82;;;;;;;18.30;93.85;99159.78;5091891;28;20080;-46
2022/10/08 07:55:37;;;;;;;17.20;11.13;;;;;;;18.28;94.00;99169.84;5091862;28;20028;-46
2022/10/08 07:58:03;;;;;;;21.52;12.95;;;;;;;18.24;93.86;99166.06;5090491;28;20378;-46
2022/10/08 08:00:29;;;;;;;18.27;14.05;;;;;;;18.33;94.78;99173.41;5090483;28;20028;-46
2022/10/08 08:02:55;;;;;;;22.67;12.60;;;;;;;18.39;94.56;99176.13;5090449;28;20058;-46
2022/10/08 08:05:21;;;;;;;17.33;11.85;;;;;;;18.43;95.06;99179.91;5090616;28;20111;-46
2022/10/08 08:07:47;;;;;;;13.80;12.30;;;;;;;18.38;94.66;99183.31;5090383;28;20093;-45
2022/10/08 08:10:12;;;;;;;22.70;11.48;;;;;;;18.31;94.66;99182.63;5090309;28;20523;-46
2022/10/08 08:12:38;;;;;;;25.00;14.93;;;;;;;18.24;94.46;99184.66;5091726;28;20028;-46
2022/10/08 08:15:04;;;;;;;17.02;14.52;;;;;;;18.22;95.15;99178.78;5091648;28;20028;-46
2022/10/08 08:17:29;;;;;;;20.13;13.27;;;;;;;18.21;94.94;99179.78;5094194;28;20042;-46
2022/10/08 08:19:55;;;;;;;21.63;14.57;;;;;;;18.15;94.76;99187.69;5094347;28;20016;-46
2022/10/08 08:22:21;;;;;;;22.00;14.77;;;;;;;18.15;94.83;99187.69;5095602;28;20482;-46
2022/10/08 08:24:46;;;;;;;28.92;15.00;;;;;;;18.13;95.09;99186.31;5094141;28;20032;-47
2022/10/08 08:27:13;;;;;;;26.08;15.30;;;;;;;18.13;95.27;99189.78;5095765;28;20461;-46
2022/10/08 08:29:39;;;;;;;22.88;15.70;;;;;;;18.14;95.25;99191.38;5094182;28;20509;-46
2022/10/08 08:32:04;;;;;;;30.75;15.60;;;;;;;18.13;95.29;99197.75;5095345;28;20020;-46
2022/10/08 08:34:33;;;;;;;35.88;16.98;;;;;;;18.17;95.75;99195.44;5095425;28;20177;-46
2022/10/08 08:36:58;;;;;;;22.88;16.85;;;;;;;18.23;95.82;99202.44;5095343;28;20020;-46
2022/10/08 08:39:26;;;;;;;54.17;48.25;;;;;;;18.23;95.51;99193.66;5095145;28;20432;-46
2022/10/08 08:42:07;;;;;;;191.75;174.02;;;;;;;18.50;96.93;99200.00;5093909;28;20486;-46
2022/10/08 08:44:48;;;;;;;28.25;18.95;;;;;;;18.59;95.32;99204.91;5093768;28;20031;-45
2022/10/08 08:47:19;;;;;;;176.38;159.15;;;;;;;18.62;95.96;99217.75;5095166;28;20024;-46
2022/10/08 08:49:57;;;;;;;28.88;18.95;;;;;;;18.66;95.79;99209.03;5095140;28;20031;-45
2022/10/08 08:52:32;;;;;;;40.30;29.73;;;;;;;18.70;95.76;99212.03;5093748;28;20452;-45
2022/10/08 08:55:00;;;;;;;63.42;55.72;;;;;;;18.72;95.08;99212.59;5095279;28;20028;-45
2022/10/08 08:57:47;;;;;;;34.78;29.40;;;;;;;18.65;94.41;99217.25;5093574;28;20023;-46
2022/10/08 09:00:14;;;;;;;29.63;18.13;;;;;;;18.61;95.22;99221.44;5095162;28;20032;-45
2022/10/08 09:03:01;;;;;;;24.20;16.73;;;;;;;18.52;93.94;99223.69;5094900;28;20024;-46
2022/10/08 09:05:30;;;;;;;21.27;16.13;;;;;;;18.36;94.20;99222.59;5093944;28;20082;-46
2022/10/08 09:08:04;;;;;;;18.25;14.40;;;;;;;18.36;94.59;99226.06;5094671;28;20062;-46
2022/10/08 09:11:03;;;;;;;15.63;14.00;;;;;;;18.26;94.25;99225.06;5095074;28;20028;-46
2022/10/08 09:13:51;;;;;;;26.45;15.25;;;;;;;18.38;94.72;99225.03;5093377;28;20119;-45
2022/10/08 09:16:17;;;;;;;20.27;14.13;;;;;;;18.45;95.14;99231.81;5094531;28;20016;-45
2022/10/08 09:18:48;;;;;;;18.48;13.05;;;;;;;18.48;94.62;99231.31;5093035;28;20047;-46
2022/10/08 09:21:14;;;;;;;23.38;14.23;;;;;;;18.59;95.32;99239.47;5094501;28;20546;-46
2022/10/08 09:23:40;;;;;;;15.65;13.57;;;;;;;18.62;94.76;99236.34;5093319;28;20024;-46
2022/10/08 09:26:32;;;;;;;16.52;13.35;;;;;;;18.60;94.42;99241.09;5093084;28;20561;-46
2022/10/08 09:28:59;;;;;;;19.70;12.30;;;;;;;18.55;94.11;99236.47;5091663;28;20556;-46
2022/10/08 09:31:48;;;;;;;23.85;14.70;;;;;;;18.60;94.73;99235.78;5093075;28;20020;-46
2022/10/08 09:34:16;;;;;;;23.90;12.07;;;;;;;18.62;95.20;99241.66;5094359;28;20039;-45
2022/10/08 09:37:00;;;;;;;24.58;22.02;;;;;;;18.67;95.07;99242.56;5094164;28;20025;-46
2022/10/08 09:39:29;;;;;;;17.70;11.65;;;;;;;18.74;95.26;99239.75;5092921;28;20492;-46
2022/10/08 09:42:06;;;;;;;27.88;17.08;;;;;;;18.81;94.85;99245.75;5094028;28;20027;-46
2022/10/08 09:44:50;;;;;;;17.60;13.25;;;;;;;18.82;94.31;99250.03;5093994;28;20020;-46
2022/10/08 09:47:19;;;;;;;23.48;12.57;;;;;;;18.78;94.75;99254.19;5075897;28;20035;-46
2022/10/08 09:49:50;;;;;;;25.25;12.00;;;;;;;18.79;94.94;99250.50;5093938;28;20133;-46
2022/10/08 09:52:21;;;;;;;17.85;11.10;;;;;;;18.74;94.39;99251.19;5093888;28;20028;-46
2022/10/08 09:55:02;;;;;;;14.35;10.48;;;;;;;18.60;94.01;99249.09;5093906;28;20054;-46
2022/10/08 09:57:29;;;;;;;17.70;11.00;;;;;;;18.59;94.55;99250.13;5092808;28;20035;-45
2022/10/08 10:00:01;;;;;;;13.90;11.00;;;;;;;18.72;95.05;99249.81;5092698;28;20020;-45
2022/10/08 10:02:33;;;;;;;27.52;15.38;;;;;;;18.88;95.64;99245.59;5092311;28;20046;-45
2022/10/08 10:05:03;;;;;;;20.80;11.90;;;;;;;18.86;94.78;99245.84;5093641;28;20138;-45
2022/10/08 10:07:38;;;;;;;18.02;11.88;;;;;;;18.82;93.29;99247.38;5092465;28;20528;-45
2022/10/08 10:10:31;;;;;;;22.77;11.80;;;;;;;18.85;95.00;99241.56;5092256;28;20096;-45
2022/10/08 10:13:19;;;;;;;16.52;11.43;;;;;;;19.13;94.97;99247.84;5093309;28;20032;-45
2022/10/08 10:15:52;;;;;;;16.25;10.63;;;;;;;19.31;94.98;99244.94;5092440;28;20059;-46
2022/10/08 10:18:21;;;;;;;18.17;11.65;;;;;;;19.47;93.85;99245.16;5075007;28;20387;-46
2022/10/08 10:20:52;;;;;;;16.95;11.25;;;;;;;19.55;93.56;99250.06;5093607;28;20024;-44
2022/10/08 10:23:38;;;;;;;20.77;10.63;;;;;;;19.59;92.56;99239.75;5075168;28;20452;-44
2022/10/08 10:26:29;;;;;;;18.75;10.05;;;;;;;19.57;92.12;99245.31;5093269;28;20036;-44
2022/10/08 10:29:11;;;;;;;16.45;9.85;;;;;;;19.73;92.38;99238.34;5091961;28;20031;-44
2022/10/08 10:31:44;;;;;;;10.27;9.13;;;;;;;19.92;91.90;99241.50;5093152;28;20106;-45
2022/10/08 10:34:16;;;;;;;21.25;9.45;;;;;;;19.82;89.29;99241.38;5091818;28;20506;-44
2022/10/08 10:36:51;;;;;;;11.38;8.90;;;;;;;20.04;88.83;99238.72;5091947;28;20035;-45
2022/10/08 10:39:29;;;;;;;13.90;9.52;;;;;;;20.12;86.80;99236.44;5091283;28;20035;-45
2022/10/08 10:42:13;;;;;;;17.35;10.27;;;;;;;20.42;85.83;99245.81;5093230;28;20543;-45
2022/10/08 10:44:57;;;;;;;15.95;11.85;;;;;;;20.51;83.12;99233.66;5091789;28;20031;-45
2022/10/08 10:47:32;;;;;;;12.40;10.38;;;;;;;20.55;82.56;99239.28;5074896;28;20031;-45
2022/10/08 10:50:00;;;;;;;14.75;10.98;;;;;;;20.65;83.29;99239.41;5093121;28;20024;-45
2022/10/08 10:52:52;;;;;;;19.55;11.60;;;;;;;20.79;82.51;99239.00;5091407;28;20093;-45
2022/10/08 10:55:32;;;;;;;16.65;11.07;;;;;;;20.98;83.53;99229.53;5091439;28;20554;-45
2022/10/08 10:58:19;;;;;;;22.50;12.27;;;;;;;21.27;82.74;99227.38;5092693;28;20024;-45
2022/10/08 11:01:13;;;;;;;18.65;11.23;;;;;;;21.64;81.73;99223.84;5092902;28;20140;-45
2022/10/08 11:03:41;;;;;;;14.15;11.75;;;;;;;21.81;79.17;99220.19;5092472;28;20505;-45
2022/10/08 11:06:31;;;;;;;15.27;10.98;;;;;;;21.77;78.47;99221.78;5091121;28;20028;-45
2022/10/08 11:09:11;;;;;;;16.20;12.68;;;;;;;21.78;77.58;99212.72;5091204;28;20047;-45
2022/10/08 11:11:42;;;;;;;23.40;18.75;;;;;;;21.86;77.28;99220.22;5092678;28;20409;-45
2022/10/08 11:14:34;;;;;;;18.92;10.15;;;;;;;22.07;74.97;99205.88;5092387;28;20028;-45
2022/10/08 11:17:10;;;;;;;13.27;9.13;;;;;;;22.25;73.09;99207.25;5092212;28;20048;-46
2022/10/08 11:19:45;;;;;;;16.48;10.52;;;;;;;22.51;74.32;99212.66;5092367;28;20058;-45
2022/10/08 11:22:48;;;;;;;19.48;9.95;;;;;;;22.78;74.09;99215.09;5092284;28;20036;-45
2022/10/08 11:25:27;;;;;;;13.50;8.80;;;;;;;22.82;72.66;99209.97;5077771;28;20028;-45
2022/10/08 11:28:21;;;;;;;13.77;9.63;;;;;;;22.76;72.35;99214.56;5092236;28;20031;-45
2022/10/08 11:30:50;;;;;;;15.48;9.75;;;;;;;22.75;70.25;99204.91;5092087;28;20070;-45
2022/10/08 11:33:16;;;;;;;13.90;9.10;;;;;;;22.58;71.11;99201.69;5092088;28;20078;-45
2022/10/08 11:35:48;;;;;;;11.50;8.75;;;;;;;22.44;70.58;99201.44;5092287;28;20052;-45
2022/10/08 11:38:32;;;;;;;13.20;9.38;;;;;;;22.38;70.70;99200.59;5092272;28;20038;-45
2022/10/08 11:41:26;;;;;;;16.35;8.68;;;;;;;22.40;69.76;99185.09;5090724;28;20028;-45
2022/10/08 11:44:01;;;;;;;13.77;8.38;;;;;;;22.45;68.77;99190.44;5091970;28;20073;-46